createdAt,value
2019-06-27T00:00:04.109Z,0
2019-06-27T00:01:06.688Z,0
2019-06-27T00:02:09.195Z,0
2019-06-27T00:03:11.283Z,0
2019-06-27T00:04:13.355Z,0
2019-06-27T00:05:15.490Z,0
2019-06-27T00:06:17.606Z,0
2019-06-27T00:07:19.739Z,0
2019-06-27T00:08:21.837Z,0
2019-06-27T00:09:24.318Z,0
2019-06-27T00:10:27.147Z,0
2019-06-27T00:11:29.643Z,0
2019-06-27T00:12:32.187Z,0
2019-06-27T00:13:34.286Z,0
2019-06-27T00:14:36.360Z,0
2019-06-27T00:15:38.529Z,0
2019-06-27T00:16:41.631Z,0
2019-06-27T00:17:44.535Z,0
2019-06-27T00:18:46.575Z,0
2019-06-27T00:19:48.690Z,0
2019-06-27T00:20:50.788Z,0
2019-06-27T00:21:52.901Z,0
2019-06-27T00:22:55.458Z,0
2019-06-27T00:23:57.533Z,0
2019-06-27T00:24:59.675Z,0
2019-06-27T00:26:02.389Z,0
2019-06-27T00:27:04.538Z,0
2019-06-27T00:28:06.888Z,0
2019-06-27T00:29:08.967Z,0
2019-06-27T00:30:11.104Z,0
2019-06-27T00:31:13.543Z,0
2019-06-27T00:32:15.697Z,0
2019-06-27T00:33:17.790Z,0
2019-06-27T00:34:19.875Z,0
2019-06-27T00:35:21.946Z,0
2019-06-27T00:36:24.030Z,0
2019-06-27T00:37:26.185Z,0
2019-06-27T00:38:28.281Z,0
2019-06-27T00:39:30.699Z,0
2019-06-27T00:40:32.817Z,0
2019-06-27T00:41:35.232Z,0
2019-06-27T00:42:37.374Z,0
2019-06-27T00:43:39.486Z,0
2019-06-27T00:44:41.599Z,0
2019-06-27T00:45:43.693Z,0
2019-06-27T00:46:46.109Z,0
2019-06-27T00:47:48.204Z,0
2019-06-27T00:48:50.295Z,0
2019-06-27T00:49:52.827Z,0
2019-06-27T00:50:54.912Z,0
2019-06-27T00:51:57.066Z,0
2019-06-27T00:52:59.146Z,0
2019-06-27T00:54:01.304Z,0
2019-06-27T00:55:03.729Z,0
2019-06-27T00:56:05.828Z,0
2019-06-27T00:57:13.787Z,0
2019-06-27T00:58:16.864Z,0
2019-06-27T00:59:20.144Z,0
2019-06-27T01:00:22.216Z,0
2019-06-27T01:01:24.327Z,0
2019-06-27T01:02:26.790Z,0
2019-06-27T01:03:28.887Z,0
2019-06-27T01:04:31.390Z,0
2019-06-27T01:05:33.782Z,0
2019-06-27T01:06:35.986Z,0
2019-06-27T01:07:38.067Z,0
2019-06-27T01:08:40.139Z,0
2019-06-27T01:09:42.279Z,0
2019-06-27T01:10:44.725Z,0
2019-06-27T01:11:46.870Z,0
2019-06-27T01:12:49.913Z,0
2019-06-27T01:13:51.974Z,0
2019-06-27T01:14:54.062Z,0
2019-06-27T01:15:56.150Z,0
2019-06-27T01:16:58.312Z,0
2019-06-27T01:18:00.662Z,0
2019-06-27T01:19:03.528Z,0
2019-06-27T01:20:05.895Z,0
2019-06-27T01:21:07.990Z,0
2019-06-27T01:22:10.120Z,0
2019-06-27T01:23:12.215Z,0
2019-06-27T01:24:14.675Z,0
2019-06-27T01:25:16.705Z,0
2019-06-27T01:26:18.852Z,0
2019-06-27T01:27:29.834Z,0
2019-06-27T01:28:32.502Z,0
2019-06-27T01:29:35.187Z,0
2019-06-27T01:30:37.546Z,0
2019-06-27T01:31:39.689Z,0
2019-06-27T01:32:41.775Z,0
2019-06-27T01:33:43.903Z,0
2019-06-27T01:34:46.403Z,0
2019-06-27T01:35:49.149Z,0
2019-06-27T01:36:51.636Z,0
2019-06-27T01:37:54.013Z,0
2019-06-27T01:38:56.541Z,0
2019-06-27T01:39:58.622Z,0
2019-06-27T01:41:00.984Z,0
2019-06-27T01:42:03.070Z,0
2019-06-27T01:43:05.541Z,0
2019-06-27T01:44:07.985Z,0
2019-06-27T01:45:10.078Z,0
2019-06-27T01:46:12.591Z,0
2019-06-27T01:47:14.750Z,0
2019-06-27T01:48:17.116Z,0
2019-06-27T01:49:19.274Z,0
2019-06-27T01:50:21.344Z,0
2019-06-27T01:51:23.423Z,0
2019-06-27T01:52:25.515Z,0
2019-06-27T01:53:27.596Z,0
2019-06-27T01:54:29.696Z,0
2019-06-27T01:55:31.768Z,0
2019-06-27T01:56:33.909Z,0
2019-06-27T01:57:45.883Z,0
2019-06-27T01:58:49.615Z,0
2019-06-27T01:59:51.757Z,0
2019-06-27T02:00:53.825Z,0
2019-06-27T02:01:55.942Z,0
2019-06-27T02:02:58.018Z,0
2019-06-27T02:04:00.430Z,0
2019-06-27T02:05:02.815Z,0
2019-06-27T02:06:04.957Z,0
2019-06-27T02:07:07.137Z,0
2019-06-27T02:08:09.628Z,4
2019-06-27T02:09:12.053Z,4
2019-06-27T02:10:14.144Z,4
2019-06-27T02:11:16.300Z,0
2019-06-27T02:12:18.387Z,0
2019-06-27T02:13:21.760Z,4
2019-06-27T02:14:24.262Z,4
2019-06-27T02:15:26.336Z,4
2019-06-27T02:16:28.757Z,4
2019-06-27T02:17:30.884Z,4
2019-06-27T02:18:33.035Z,4
2019-06-27T02:19:35.504Z,4
2019-06-27T02:20:37.655Z,8
2019-06-27T02:21:40.061Z,8
2019-06-27T02:22:42.758Z,12
2019-06-27T02:23:44.924Z,8
2019-06-27T02:24:46.989Z,8
2019-06-27T02:25:49.144Z,12
2019-06-27T02:26:51.233Z,12
2019-06-27T02:28:02.936Z,16
2019-06-27T02:29:06.604Z,16
2019-06-27T02:30:08.989Z,16
2019-06-27T02:31:11.715Z,20
2019-06-27T02:32:14.718Z,20
2019-06-27T02:33:18.142Z,24
2019-06-27T02:34:20.797Z,24
2019-06-27T02:35:22.904Z,28
2019-06-27T02:36:25.343Z,28
2019-06-27T02:37:27.717Z,32
2019-06-27T02:38:30.238Z,36
2019-06-27T02:39:32.278Z,40
2019-06-27T02:40:34.791Z,40
2019-06-27T02:41:37.169Z,48
2019-06-27T02:42:39.285Z,56
2019-06-27T02:43:42.111Z,60
2019-06-27T02:44:44.225Z,68
2019-06-27T02:45:46.698Z,72
2019-06-27T02:46:48.823Z,80
2019-06-27T02:47:51.159Z,80
2019-06-27T02:48:53.569Z,88
2019-06-27T02:49:55.668Z,96
2019-06-27T02:50:58.104Z,104
2019-06-27T02:52:00.605Z,112
2019-06-27T02:53:02.724Z,120
2019-06-27T02:54:05.266Z,128
2019-06-27T02:55:08.014Z,132
2019-06-27T02:56:10.510Z,140
2019-06-27T02:57:12.901Z,148
2019-06-27T02:58:29.482Z,156
2019-06-27T02:59:35.096Z,176
2019-06-27T03:00:37.241Z,192
2019-06-27T03:01:39.996Z,208
2019-06-27T03:02:42.666Z,216
2019-06-27T03:03:45.491Z,232
2019-06-27T03:04:48.645Z,244
2019-06-27T03:05:51.366Z,256
2019-06-27T03:06:53.439Z,268
2019-06-27T03:07:55.545Z,280
2019-06-27T03:08:57.663Z,292
2019-06-27T03:10:00.035Z,300
2019-06-27T03:11:03.128Z,308
2019-06-27T03:12:05.607Z,324
2019-06-27T03:13:08.365Z,324
2019-06-27T03:14:11.151Z,344
2019-06-27T03:15:13.735Z,368
2019-06-27T03:16:15.782Z,384
2019-06-27T03:17:17.891Z,400
2019-06-27T03:18:19.939Z,404
2019-06-27T03:19:22.027Z,412
2019-06-27T03:20:24.547Z,428
2019-06-27T03:21:26.732Z,440
2019-06-27T03:22:29.211Z,452
2019-06-27T03:23:31.304Z,464
2019-06-27T03:24:33.672Z,472
2019-06-27T03:25:35.761Z,496
2019-06-27T03:26:37.885Z,504
2019-06-27T03:27:40.319Z,512
2019-06-27T03:28:51.492Z,532
2019-06-27T03:29:57.111Z,548
2019-06-27T03:30:59.265Z,564
2019-06-27T03:32:01.548Z,580
2019-06-27T03:33:04.511Z,592
2019-06-27T03:34:07.407Z,608
2019-06-27T03:35:09.540Z,616
2019-06-27T03:36:12.797Z,628
2019-06-27T03:37:15.650Z,644
2019-06-27T03:38:17.787Z,652
2019-06-27T03:39:20.178Z,664
2019-06-27T03:40:22.196Z,656
2019-06-27T03:41:25.299Z,668
2019-06-27T03:42:28.125Z,704
2019-06-27T03:43:30.248Z,716
2019-06-27T03:44:32.275Z,740
2019-06-27T03:45:34.757Z,748
2019-06-27T03:46:37.232Z,728
2019-06-27T03:47:39.946Z,736
2019-06-27T03:48:42.725Z,780
2019-06-27T03:49:45.143Z,796
2019-06-27T03:50:47.233Z,804
2019-06-27T03:51:49.292Z,816
2019-06-27T03:52:51.878Z,812
2019-06-27T03:53:54.240Z,836
2019-06-27T03:54:56.372Z,840
2019-06-27T03:55:58.744Z,864
2019-06-27T03:57:01.082Z,876
2019-06-27T03:58:03.777Z,880
2019-06-27T03:59:12.596Z,852
2019-06-27T04:00:16.315Z,908
2019-06-27T04:01:18.682Z,916
2019-06-27T04:02:21.711Z,920
2019-06-27T04:03:24.111Z,1020
2019-06-27T04:04:26.758Z,1024
2019-06-27T04:05:29.174Z,1132
2019-06-27T04:06:31.260Z,1124
2019-06-27T04:07:34.064Z,1080
2019-06-27T04:08:36.494Z,1104
2019-06-27T04:09:39.410Z,1136
2019-06-27T04:10:42.114Z,1140
2019-06-27T04:11:44.236Z,1116
2019-06-27T04:12:46.689Z,1152
2019-06-27T04:13:49.057Z,1168
2019-06-27T04:14:51.555Z,1156
2019-06-27T04:15:54.257Z,1212
2019-06-27T04:16:56.796Z,1244
2019-06-27T04:17:59.542Z,1240
2019-06-27T04:19:01.646Z,1304
2019-06-27T04:20:04.083Z,1284
2019-06-27T04:21:06.405Z,1372
2019-06-27T04:22:09.180Z,1336
2019-06-27T04:23:11.256Z,1300
2019-06-27T04:24:13.305Z,1324
2019-06-27T04:25:15.879Z,1360
2019-06-27T04:26:18.275Z,1380
2019-06-27T04:27:20.720Z,1380
2019-06-27T04:28:23.196Z,1268
2019-06-27T04:29:33.269Z,1348
2019-06-27T04:30:37.249Z,1448
2019-06-27T04:31:39.408Z,1432
2019-06-27T04:32:41.789Z,1404
2019-06-27T04:33:44.137Z,1484
2019-06-27T04:34:46.316Z,1512
2019-06-27T04:35:48.971Z,1488
2019-06-27T04:36:51.112Z,1472
2019-06-27T04:37:53.204Z,1476
2019-06-27T04:38:55.557Z,1560
2019-06-27T04:39:58.356Z,1684
2019-06-27T04:41:00.869Z,1732
2019-06-27T04:42:03.817Z,1720
2019-06-27T04:43:06.484Z,1652
2019-06-27T04:44:08.928Z,1628
2019-06-27T04:45:11.989Z,1596
2019-06-27T04:46:14.340Z,1656
2019-06-27T04:47:17.243Z,1776
2019-06-27T04:48:19.663Z,1704
2019-06-27T04:49:21.959Z,1628
2019-06-27T04:50:24.366Z,1672
2019-06-27T04:51:27.503Z,1724
2019-06-27T04:52:30.308Z,1852
2019-06-27T04:53:32.785Z,1760
2019-06-27T04:54:35.217Z,1808
2019-06-27T04:55:37.911Z,1812
2019-06-27T04:56:40.032Z,1832
2019-06-27T04:57:42.558Z,1948
2019-06-27T04:58:45.031Z,1944
2019-06-27T04:59:53.000Z,1988
2019-06-27T05:00:56.390Z,2024
2019-06-27T05:01:58.486Z,2092
2019-06-27T05:03:00.849Z,2104
2019-06-27T05:04:03.022Z,1956
2019-06-27T05:05:05.466Z,1940
2019-06-27T05:06:07.851Z,1976
2019-06-27T05:07:10.359Z,2016
2019-06-27T05:08:14.511Z,2256
2019-06-27T05:09:17.389Z,2176
2019-06-27T05:10:19.493Z,2280
2019-06-27T05:11:21.650Z,2076
2019-06-27T05:12:24.061Z,2304
2019-06-27T05:13:26.176Z,2428
2019-06-27T05:14:28.307Z,2228
2019-06-27T05:15:34.421Z,2224
2019-06-27T05:16:36.894Z,2480
2019-06-27T05:17:39.431Z,2516
2019-06-27T05:18:41.562Z,2480
2019-06-27T05:19:44.060Z,2492
2019-06-27T05:20:46.181Z,2556
2019-06-27T05:21:48.299Z,2480
2019-06-27T05:22:50.384Z,2336
2019-06-27T05:23:52.510Z,2400
2019-06-27T05:24:54.618Z,2384
2019-06-27T05:25:56.990Z,2460
2019-06-27T05:26:59.190Z,2404
2019-06-27T05:28:01.555Z,2608
2019-06-27T05:29:04.032Z,2692
2019-06-27T05:30:09.712Z,2868
2019-06-27T05:31:12.752Z,2660
2019-06-27T05:32:15.114Z,2452
2019-06-27T05:33:17.500Z,2496
2019-06-27T05:34:19.670Z,2472
2019-06-27T05:35:21.760Z,2668
2019-06-27T05:36:24.735Z,2492
2019-06-27T05:37:27.220Z,2576
2019-06-27T05:38:29.295Z,2524
2019-06-27T05:39:31.334Z,2620
2019-06-27T05:40:33.442Z,2432
2019-06-27T05:41:35.584Z,2700
2019-06-27T05:42:37.630Z,2548
2019-06-27T05:43:39.779Z,2696
2019-06-27T05:44:42.141Z,2852
2019-06-27T05:45:44.249Z,2796
2019-06-27T05:46:46.390Z,2936
2019-06-27T05:47:48.772Z,3000
2019-06-27T05:48:50.925Z,2848
2019-06-27T05:49:53.363Z,2968
2019-06-27T05:50:55.788Z,2636
2019-06-27T05:51:57.880Z,2220
2019-06-27T05:52:59.938Z,2272
2019-06-27T05:54:02.098Z,2452
2019-06-27T05:55:04.575Z,2504
2019-06-27T05:56:06.716Z,2560
2019-06-27T05:57:09.186Z,2332
2019-06-27T05:58:11.283Z,2100
2019-06-27T05:59:13.761Z,2204
2019-06-27T06:00:27.147Z,2472
2019-06-27T06:01:32.063Z,2108
2019-06-27T06:02:35.162Z,2316
2019-06-27T06:03:37.651Z,2484
2019-06-27T06:04:40.124Z,3004
2019-06-27T06:05:42.486Z,3392
2019-06-27T06:06:45.534Z,3156
2019-06-27T06:07:47.622Z,3264
2019-06-27T06:08:50.150Z,3268
2019-06-27T06:09:52.251Z,3376
2019-06-27T06:10:54.678Z,3096
2019-06-27T06:11:56.784Z,2868
2019-06-27T06:12:58.831Z,2832
2019-06-27T06:14:00.987Z,2800
2019-06-27T06:15:03.925Z,2756
2019-06-27T06:16:06.079Z,2768
2019-06-27T06:17:08.181Z,2668
2019-06-27T06:18:10.326Z,2576
2019-06-27T06:19:12.450Z,2676
2019-06-27T06:20:14.920Z,2388
2019-06-27T06:21:17.084Z,1988
2019-06-27T06:22:19.898Z,2124
2019-06-27T06:23:22.363Z,2148
2019-06-27T06:24:24.452Z,2168
2019-06-27T06:25:26.893Z,2112
2019-06-27T06:26:29.625Z,1980
2019-06-27T06:27:31.715Z,2060
2019-06-27T06:28:33.881Z,1960
2019-06-27T06:29:36.264Z,2016
2019-06-27T06:30:44.166Z,2072
2019-06-27T06:31:49.353Z,2456
2019-06-27T06:32:51.716Z,2304
2019-06-27T06:33:54.092Z,2704
2019-06-27T06:34:56.195Z,2944
2019-06-27T06:35:58.308Z,3212
2019-06-27T06:37:00.429Z,3444
2019-06-27T06:38:03.676Z,3436
2019-06-27T06:39:06.059Z,3468
2019-06-27T06:40:08.178Z,3328
2019-06-27T06:41:10.607Z,3344
2019-06-27T06:42:12.953Z,3192
2019-06-27T06:43:16.929Z,2780
2019-06-27T06:44:20.274Z,2624
2019-06-27T06:45:25.503Z,2560
2019-06-27T06:46:33.661Z,2748
2019-06-27T06:47:41.581Z,3280
2019-06-27T06:48:50.966Z,3604
2019-06-27T06:50:07.638Z,3604
2019-06-27T06:51:17.202Z,3608
2019-06-27T06:52:24.846Z,3868
2019-06-27T06:53:47.278Z,3248
2019-06-27T06:55:04.097Z,3668
2019-06-27T06:56:16.350Z,3392
2019-06-27T06:57:27.701Z,3664
2019-06-27T06:58:37.486Z,3044
2019-06-27T06:59:44.118Z,3248
2019-06-27T07:01:00.662Z,3068
2019-06-27T07:02:04.947Z,2456
2019-06-27T07:03:07.590Z,2508
2019-06-27T07:04:10.073Z,2872
2019-06-27T07:05:12.455Z,2804
2019-06-27T07:06:14.587Z,2392
2019-06-27T07:07:16.949Z,2200
2019-06-27T07:08:19.347Z,2332
2019-06-27T07:09:21.936Z,2528
2019-06-27T07:10:24.412Z,2876
2019-06-27T07:11:26.623Z,2872
2019-06-27T07:12:28.720Z,2808
2019-06-27T07:13:31.284Z,3364
2019-06-27T07:14:33.390Z,3316
2019-06-27T07:15:36.298Z,3652
2019-06-27T07:16:38.833Z,3912
2019-06-27T07:17:41.266Z,3820
2019-06-27T07:18:43.421Z,3232
2019-06-27T07:19:45.757Z,3052
2019-06-27T07:20:48.590Z,2832
2019-06-27T07:21:50.974Z,2724
2019-06-27T07:22:53.088Z,2328
2019-06-27T07:23:55.516Z,1980
2019-06-27T07:24:58.235Z,2040
2019-06-27T07:26:01.558Z,1872
2019-06-27T07:27:03.744Z,1948
2019-06-27T07:28:05.880Z,2476
2019-06-27T07:29:08.054Z,2620
2019-06-27T07:30:11.205Z,2712
2019-06-27T07:31:17.967Z,2620
2019-06-27T07:32:20.643Z,2020
2019-06-27T07:33:22.792Z,2096
2019-06-27T07:34:24.909Z,1804
2019-06-27T07:35:27.656Z,1936
2019-06-27T07:36:30.121Z,2396
2019-06-27T07:37:33.120Z,2476
2019-06-27T07:38:35.640Z,2528
2019-06-27T07:39:38.130Z,2692
2019-06-27T07:40:40.241Z,2976
2019-06-27T07:41:42.695Z,3280
2019-06-27T07:42:45.627Z,3332
2019-06-27T07:43:47.760Z,3736
2019-06-27T07:44:49.911Z,4224
2019-06-27T07:45:52.732Z,3832
2019-06-27T07:46:55.672Z,3304
2019-06-27T07:47:58.437Z,2688
2019-06-27T07:49:00.575Z,2832
2019-06-27T07:50:02.708Z,2936
2019-06-27T07:51:05.791Z,2136
2019-06-27T07:52:08.244Z,2644
2019-06-27T07:53:10.473Z,2416
2019-06-27T07:54:12.913Z,2300
2019-06-27T07:55:15.007Z,2388
2019-06-27T07:56:17.569Z,2340
2019-06-27T07:57:19.686Z,2340
2019-06-27T07:58:21.834Z,2336
2019-06-27T07:59:24.365Z,2364
2019-06-27T08:00:26.860Z,2388
2019-06-27T08:01:34.775Z,2452
2019-06-27T08:02:38.435Z,2572
2019-06-27T08:03:40.545Z,2820
2019-06-27T08:04:42.660Z,3008
2019-06-27T08:05:45.193Z,3464
2019-06-27T08:06:47.722Z,4216
2019-06-27T08:07:50.121Z,4780
2019-06-27T08:08:53.028Z,4620
2019-06-27T08:09:55.393Z,3484
2019-06-27T08:10:57.548Z,3156
2019-06-27T08:11:59.996Z,2248
2019-06-27T08:13:02.492Z,2760
2019-06-27T08:14:05.024Z,2064
2019-06-27T08:15:07.411Z,2372
2019-06-27T08:16:09.636Z,2272
2019-06-27T08:17:11.744Z,2356
2019-06-27T08:18:14.288Z,2336
2019-06-27T08:19:16.440Z,2336
2019-06-27T08:20:18.772Z,2364
2019-06-27T08:21:21.186Z,2460
2019-06-27T08:22:23.569Z,2632
2019-06-27T08:23:40.437Z,2716
2019-06-27T08:24:44.138Z,2588
2019-06-27T08:25:46.325Z,2488
2019-06-27T08:26:48.443Z,2408
2019-06-27T08:27:50.588Z,2400
2019-06-27T08:28:52.718Z,2440
2019-06-27T08:29:54.893Z,2476
2019-06-27T08:30:57.064Z,2544
2019-06-27T08:31:59.158Z,2648
2019-06-27T08:33:02.251Z,2816
2019-06-27T08:34:05.396Z,2676
2019-06-27T08:35:07.896Z,2644
2019-06-27T08:36:10.946Z,2860
2019-06-27T08:37:13.083Z,2968
2019-06-27T08:38:15.620Z,2748
2019-06-27T08:39:17.709Z,2596
2019-06-27T08:40:19.889Z,2616
2019-06-27T08:41:22.599Z,2640
2019-06-27T08:42:24.976Z,2720
2019-06-27T08:43:28.042Z,2776
2019-06-27T08:44:34.991Z,2944
2019-06-27T08:45:41.001Z,3156
2019-06-27T08:46:47.278Z,2748
2019-06-27T08:47:49.382Z,2912
2019-06-27T08:48:51.763Z,2844
2019-06-27T08:49:53.870Z,2908
2019-06-27T08:50:55.967Z,2820
2019-06-27T08:51:58.326Z,2828
2019-06-27T08:53:01.533Z,2828
2019-06-27T08:54:04.004Z,2856
2019-06-27T08:55:06.585Z,3064
2019-06-27T08:56:09.048Z,3264
2019-06-27T08:57:11.562Z,3524
2019-06-27T08:58:13.782Z,3772
2019-06-27T08:59:15.909Z,4120
2019-06-27T09:00:18.077Z,4496
2019-06-27T09:01:20.155Z,3580
2019-06-27T09:02:22.209Z,3908
2019-06-27T09:03:24.677Z,3420
2019-06-27T09:04:27.084Z,3584
2019-06-27T09:05:30.498Z,3496
2019-06-27T09:06:32.628Z,3400
2019-06-27T09:07:34.760Z,3568
2019-06-27T09:08:37.170Z,3444
2019-06-27T09:09:39.573Z,3580
2019-06-27T09:10:42.059Z,3340
2019-06-27T09:11:44.753Z,3468
2019-06-27T09:12:47.186Z,3512
2019-06-27T09:13:49.662Z,3232
2019-06-27T09:14:51.807Z,3268
2019-06-27T09:15:53.923Z,3504
2019-06-27T09:16:56.070Z,3880
2019-06-27T09:17:58.496Z,3916
2019-06-27T09:19:00.925Z,4024
2019-06-27T09:20:03.498Z,3876
2019-06-27T09:21:06.268Z,2828
2019-06-27T09:22:08.402Z,3464
2019-06-27T09:23:10.550Z,3284
2019-06-27T09:24:13.023Z,3264
2019-06-27T09:25:15.225Z,3304
2019-06-27T09:26:17.952Z,3456
2019-06-27T09:27:20.484Z,3608
2019-06-27T09:28:22.948Z,3748
2019-06-27T09:29:25.678Z,4220
2019-06-27T09:30:27.832Z,5536
2019-06-27T09:31:30.557Z,7900
2019-06-27T09:32:32.718Z,8208
2019-06-27T09:33:35.097Z,5936
2019-06-27T09:34:37.616Z,4892
2019-06-27T09:35:39.718Z,5216
2019-06-27T09:36:42.218Z,4544
2019-06-27T09:37:44.359Z,4744
2019-06-27T09:38:46.450Z,5276
2019-06-27T09:39:49.116Z,6596
2019-06-27T09:40:51.261Z,7388
2019-06-27T09:41:53.644Z,7252
2019-06-27T09:42:55.838Z,7116
2019-06-27T09:43:57.990Z,7032
2019-06-27T09:45:00.178Z,7468
2019-06-27T09:46:02.302Z,7476
2019-06-27T09:47:04.853Z,8320
2019-06-27T09:48:07.403Z,8788
2019-06-27T09:49:10.196Z,7616
2019-06-27T09:50:12.698Z,7388
2019-06-27T09:51:14.807Z,8008
2019-06-27T09:52:17.280Z,7980
2019-06-27T09:53:20.115Z,7188
2019-06-27T09:54:22.179Z,8844
2019-06-27T09:55:24.910Z,8328
2019-06-27T09:56:27.350Z,9220
2019-06-27T09:57:29.757Z,8144
2019-06-27T09:58:32.884Z,7276
2019-06-27T09:59:35.069Z,8920
2019-06-27T10:00:37.147Z,11496
2019-06-27T10:01:39.581Z,9664
2019-06-27T10:02:42.928Z,11444
2019-06-27T10:03:45.126Z,17024
2019-06-27T10:04:47.968Z,30400
2019-06-27T10:05:50.403Z,40992
2019-06-27T10:06:52.571Z,45792
2019-06-27T10:07:54.716Z,9124
2019-06-27T10:08:56.971Z,32896
2019-06-27T10:09:59.142Z,32320
2019-06-27T10:11:01.277Z,38272
2019-06-27T10:12:03.455Z,33824
2019-06-27T10:13:05.866Z,10036
2019-06-27T10:14:08.260Z,51744
2019-06-27T10:15:10.380Z,58432
2019-06-27T10:16:12.794Z,61152
2019-06-27T10:17:15.020Z,60992
2019-06-27T10:18:17.262Z,60384
2019-06-27T10:19:19.411Z,57664
2019-06-27T10:20:22.253Z,30848
2019-06-27T10:21:24.378Z,63200
2019-06-27T10:22:26.794Z,37504
2019-06-27T10:23:28.971Z,65024
2019-06-27T10:24:31.462Z,65920
2019-06-27T10:25:33.674Z,66336
2019-06-27T10:26:40.239Z,64928
2019-06-27T10:27:42.654Z,66112
2019-06-27T10:28:44.699Z,21504
2019-06-27T10:29:47.595Z,57792
2019-06-27T10:30:50.111Z,33696
2019-06-27T10:31:52.241Z,10260
2019-06-27T10:32:59.565Z,13728
2019-06-27T10:34:02.610Z,21408
2019-06-27T10:35:04.700Z,40640
2019-06-27T10:36:06.843Z,68640
2019-06-27T10:37:08.953Z,67360
2019-06-27T10:38:11.386Z,69664
2019-06-27T10:39:14.235Z,68064
2019-06-27T10:40:16.670Z,61760
2019-06-27T10:41:19.134Z,8712
2019-06-27T10:42:21.522Z,8388
2019-06-27T10:43:23.646Z,8952
2019-06-27T10:44:25.739Z,13552
2019-06-27T10:45:28.081Z,29408
2019-06-27T10:46:30.268Z,14084
2019-06-27T10:47:32.707Z,47328
2019-06-27T10:48:34.840Z,63264
2019-06-27T10:49:37.367Z,63712
2019-06-27T10:50:39.803Z,59392
2019-06-27T10:51:41.936Z,67488
2019-06-27T10:52:44.054Z,66336
2019-06-27T10:53:46.203Z,65088
2019-06-27T10:54:48.355Z,68224
2019-06-27T10:55:50.867Z,69472
2019-06-27T10:56:53.320Z,68960
2019-06-27T10:57:55.825Z,8992
2019-06-27T10:58:58.262Z,56864
2019-06-27T11:00:00.702Z,69152
2019-06-27T11:01:04.330Z,69952
2019-06-27T11:02:06.446Z,71360
2019-06-27T11:03:15.245Z,51008
2019-06-27T11:04:18.876Z,26144
2019-06-27T11:05:21.426Z,17056
2019-06-27T11:06:23.606Z,77216
2019-06-27T11:07:25.716Z,67104
2019-06-27T11:08:27.813Z,8212
2019-06-27T11:09:29.965Z,7748
2019-06-27T11:10:32.720Z,10648
2019-06-27T11:11:34.918Z,56928
2019-06-27T11:12:37.621Z,71424
2019-06-27T11:13:40.061Z,72352
2019-06-27T11:14:55.183Z,74016
2019-06-27T11:16:02.231Z,40352
2019-06-27T11:17:04.372Z,32512
2019-06-27T11:18:06.462Z,71424
2019-06-27T11:19:08.637Z,71008
2019-06-27T11:20:10.760Z,10836
2019-06-27T11:21:17.641Z,15572
2019-06-27T11:22:19.761Z,11708
2019-06-27T11:23:22.298Z,15212
2019-06-27T11:24:24.764Z,43936
2019-06-27T11:25:27.525Z,57216
2019-06-27T11:26:29.778Z,16112
2019-06-27T11:27:32.267Z,71360
2019-06-27T11:28:35.104Z,43520
2019-06-27T11:29:37.245Z,10332
2019-06-27T11:30:39.352Z,34944
2019-06-27T11:31:41.870Z,45888
2019-06-27T11:32:44.042Z,39552
2019-06-27T11:33:46.267Z,73952
2019-06-27T11:34:48.357Z,27328
2019-06-27T11:35:50.820Z,58720
2019-06-27T11:36:53.208Z,19136
2019-06-27T11:37:55.323Z,23808
2019-06-27T11:38:57.516Z,31168
2019-06-27T11:39:59.608Z,51296
2019-06-27T11:41:02.123Z,29344
2019-06-27T11:42:04.552Z,46784
2019-06-27T11:43:06.903Z,9628
2019-06-27T11:44:09.054Z,7536
2019-06-27T11:45:11.487Z,27360
2019-06-27T11:46:13.657Z,63104
2019-06-27T11:47:15.703Z,64800
2019-06-27T11:48:18.150Z,65408
2019-06-27T11:49:20.254Z,42752
2019-06-27T11:50:23.333Z,39808
2019-06-27T11:51:25.849Z,21728
2019-06-27T11:52:27.971Z,17696
2019-06-27T11:53:30.125Z,10112
2019-06-27T11:54:32.167Z,16672
2019-06-27T11:55:34.308Z,12032
2019-06-27T11:56:36.410Z,12208
2019-06-27T11:57:38.503Z,13268
2019-06-27T11:58:40.601Z,13260
2019-06-27T11:59:42.726Z,11568
2019-06-27T12:00:44.832Z,10236
2019-06-27T12:01:46.935Z,10948
2019-06-27T12:02:49.123Z,9768
2019-06-27T12:03:51.659Z,10072
2019-06-27T12:04:53.802Z,9992
2019-06-27T12:05:55.902Z,8980
2019-06-27T12:06:58.006Z,7596
2019-06-27T12:08:00.401Z,6620
2019-06-27T12:09:03.794Z,6652
2019-06-27T12:10:06.632Z,8108
2019-06-27T12:11:09.187Z,7700
2019-06-27T12:12:11.765Z,10244
2019-06-27T12:13:13.914Z,11516
2019-06-27T12:14:16.022Z,12232
2019-06-27T12:15:18.521Z,10748
2019-06-27T12:16:21.238Z,10668
2019-06-27T12:17:23.337Z,11124
2019-06-27T12:18:25.489Z,13132
2019-06-27T12:19:27.602Z,11280
2019-06-27T12:20:29.756Z,10992
2019-06-27T12:21:32.138Z,13792
2019-06-27T12:22:34.667Z,10808
2019-06-27T12:23:36.842Z,9820
2019-06-27T12:24:38.942Z,12036
2019-06-27T12:25:41.929Z,10504
2019-06-27T12:26:44.332Z,9752
2019-06-27T12:27:46.465Z,8080
2019-06-27T12:28:48.880Z,6892
2019-06-27T12:29:51.208Z,9108
2019-06-27T12:30:53.307Z,7960
2019-06-27T12:31:55.703Z,8708
2019-06-27T12:32:57.823Z,7996
2019-06-27T12:34:06.649Z,7224
2019-06-27T12:35:09.877Z,9692
2019-06-27T12:36:12.101Z,8508
2019-06-27T12:37:14.422Z,8356
2019-06-27T12:38:16.595Z,9720
2019-06-27T12:39:18.696Z,10584
2019-06-27T12:40:20.882Z,8508
2019-06-27T12:41:23.371Z,8184
2019-06-27T12:42:32.241Z,6200
2019-06-27T12:43:35.294Z,7224
2019-06-27T12:44:37.386Z,6724
2019-06-27T12:45:39.573Z,6728
2019-06-27T12:46:41.672Z,7448
2019-06-27T12:47:44.098Z,7604
2019-06-27T12:48:47.244Z,7588
2019-06-27T12:50:01.038Z,5456
2019-06-27T12:51:05.298Z,7484
2019-06-27T12:52:07.403Z,6876
2019-06-27T12:53:09.552Z,6444
2019-06-27T12:54:11.656Z,7100
2019-06-27T12:55:13.833Z,8380
2019-06-27T12:56:15.944Z,9284
2019-06-27T12:57:19.179Z,5424
2019-06-27T12:58:21.759Z,7368
2019-06-27T12:59:24.521Z,8436
2019-06-27T13:00:27.077Z,7012
2019-06-27T13:01:29.630Z,7040
2019-06-27T13:02:31.831Z,7076
2019-06-27T13:03:34.880Z,6940
2019-06-27T13:04:37.227Z,6776
2019-06-27T13:05:40.179Z,7408
2019-06-27T13:06:42.565Z,7328
2019-06-27T13:07:44.732Z,7112
2019-06-27T13:08:47.236Z,7624
2019-06-27T13:09:50.086Z,8408
2019-06-27T13:10:53.583Z,8728
2019-06-27T13:11:55.671Z,8932
2019-06-27T13:12:57.836Z,10364
2019-06-27T13:14:00.120Z,6160
2019-06-27T13:15:02.895Z,10892
2019-06-27T13:16:05.674Z,10420
2019-06-27T13:17:08.133Z,10216
2019-06-27T13:18:10.531Z,10312
2019-06-27T13:19:12.913Z,10940
2019-06-27T13:20:15.056Z,11928
2019-06-27T13:21:17.408Z,11988
2019-06-27T13:22:20.315Z,13004
2019-06-27T13:23:22.770Z,13976
2019-06-27T13:24:24.963Z,13484
2019-06-27T13:25:27.436Z,12796
2019-06-27T13:26:29.568Z,13188
2019-06-27T13:27:32.605Z,13860
2019-06-27T13:28:35.214Z,14572
2019-06-27T13:29:37.623Z,15904
2019-06-27T13:30:39.765Z,17408
2019-06-27T13:31:42.101Z,19424
2019-06-27T13:32:44.502Z,12156
2019-06-27T13:33:46.633Z,21024
2019-06-27T13:34:49.086Z,22720
2019-06-27T13:35:51.605Z,25568
2019-06-27T13:36:53.736Z,35776
2019-06-27T13:37:55.857Z,51488
2019-06-27T13:38:58.253Z,57376
2019-06-27T13:40:03.540Z,62144
2019-06-27T13:41:06.949Z,66912
2019-06-27T13:42:09.393Z,38240
2019-06-27T13:43:11.495Z,45728
2019-06-27T13:44:13.890Z,63296
2019-06-27T13:45:15.996Z,62240
2019-06-27T13:46:18.491Z,66816
2019-06-27T13:47:20.991Z,68352
2019-06-27T13:48:23.171Z,11196
2019-06-27T13:49:25.324Z,12424
2019-06-27T13:50:27.775Z,9940
2019-06-27T13:51:29.893Z,9528
2019-06-27T13:52:32.024Z,73792
2019-06-27T13:53:34.143Z,75840
2019-06-27T13:54:36.296Z,76736
2019-06-27T13:55:38.425Z,77280
2019-06-27T13:56:40.847Z,77216
2019-06-27T13:57:43.643Z,75424
2019-06-27T13:58:46.477Z,76800
2019-06-27T13:59:48.945Z,14888
2019-06-27T14:00:51.827Z,79296
2019-06-27T14:01:54.266Z,10908
2019-06-27T14:02:56.384Z,13600
2019-06-27T14:03:58.815Z,14216
2019-06-27T14:05:00.982Z,19712
2019-06-27T14:06:04.096Z,9772
2019-06-27T14:07:06.261Z,11212
2019-06-27T14:08:08.743Z,80768